createdAt,value
2019-04-21T00:00:58.688Z,927.36
2019-04-21T00:01:54.095Z,927.33
2019-04-21T00:02:53.656Z,927.34
2019-04-21T00:03:57.521Z,927.35
2019-04-21T00:05:14.111Z,927.36
2019-04-21T00:06:08.915Z,927.35
2019-04-21T00:07:13.237Z,927.36
2019-04-21T00:08:22.879Z,927.37
2019-04-21T00:09:19.180Z,927.41
2019-04-21T00:10:16.818Z,927.42
2019-04-21T00:11:18.977Z,927.42
2019-04-21T00:12:13.983Z,927.40
2019-04-21T00:13:07.761Z,927.43
2019-04-21T00:14:05.715Z,927.44
2019-04-21T00:15:02.116Z,927.43
2019-04-21T00:15:57.717Z,927.45
2019-04-21T00:17:02.763Z,927.50
2019-04-21T00:17:58.886Z,927.49
2019-04-21T00:19:01.134Z,927.52
2019-04-21T00:20:05.569Z,927.49
2019-04-21T00:20:56.328Z,927.46
2019-04-21T00:22:05.930Z,927.47
2019-04-21T00:23:10.587Z,927.43
2019-04-21T00:24:04.890Z,927.42
2019-04-21T00:25:08.682Z,927.46
2019-04-21T00:26:07.104Z,927.44
2019-04-21T00:27:09.703Z,927.44
2019-04-21T00:28:13.969Z,927.43
2019-04-21T00:29:16.601Z,927.45
2019-04-21T00:30:15.738Z,927.45
2019-04-21T00:31:12.812Z,927.45
2019-04-21T00:32:10.493Z,927.37
2019-04-21T00:33:02.911Z,927.39
2019-04-21T00:33:55.100Z,927.38
2019-04-21T00:35:00.946Z,927.37
2019-04-21T00:36:00.700Z,927.37
2019-04-21T00:37:05.762Z,927.37
2019-04-21T00:38:17.230Z,927.43
2019-04-21T00:39:23.277Z,927.41
2019-04-21T00:40:17.943Z,927.40
2019-04-21T00:42:13.904Z,927.36
2019-04-21T00:43:13.673Z,927.37
2019-04-21T00:44:10.985Z,927.34
2019-04-21T00:45:10.743Z,927.32
2019-04-21T00:46:04.837Z,927.34
2019-04-21T00:47:05.477Z,927.35
2019-04-21T00:48:16.985Z,927.37
2019-04-21T00:49:12.482Z,927.40
2019-04-21T00:50:12.802Z,927.36
2019-04-21T00:52:28.843Z,927.32
2019-04-21T00:53:23.064Z,927.34
2019-04-21T00:54:16.748Z,927.32
2019-04-21T00:56:34.028Z,927.33
2019-04-21T00:57:18.087Z,927.30
2019-04-21T00:58:22.471Z,927.30
2019-04-21T00:59:20.029Z,927.28
2019-04-21T01:00:20.252Z,927.28
2019-04-21T01:01:16.219Z,927.28
2019-04-21T01:02:14.311Z,927.28
2019-04-21T01:03:20.169Z,927.27
2019-04-21T01:04:16.906Z,927.24
2019-04-21T01:05:19.850Z,927.26
2019-04-21T01:06:22.636Z,927.23
2019-04-21T01:07:12.587Z,927.21
2019-04-21T01:08:14.252Z,927.20
2019-04-21T01:09:13.604Z,927.22
2019-04-21T01:10:09.383Z,927.19
2019-04-21T01:11:18.856Z,927.19
2019-04-21T01:12:19.107Z,927.18
2019-04-21T01:13:21.594Z,927.21
2019-04-21T01:14:20.002Z,927.22
2019-04-21T01:15:26.183Z,927.20
2019-04-21T01:16:20.640Z,927.22
2019-04-21T01:17:19.270Z,927.21
2019-04-21T01:18:16.759Z,927.23
2019-04-21T01:19:16.677Z,927.22
2019-04-21T01:20:10.465Z,927.17
2019-04-21T01:20:56.049Z,927.15
2019-04-21T01:21:56.106Z,927.18
2019-04-21T01:22:56.140Z,927.16
2019-04-21T01:24:07.812Z,927.14
2019-04-21T01:25:07.009Z,927.15
2019-04-21T01:26:12.180Z,927.13
2019-04-21T01:27:06.367Z,927.12
2019-04-21T01:28:13.609Z,927.14
2019-04-21T01:29:12.038Z,927.13
2019-04-21T01:30:17.652Z,927.15
2019-04-21T01:31:15.383Z,927.14
2019-04-21T01:32:19.074Z,927.14
2019-04-21T01:33:21.991Z,927.16
2019-04-21T01:34:14.916Z,927.16
2019-04-21T01:35:16.439Z,927.20
2019-04-21T01:36:14.518Z,927.18
2019-04-21T01:37:15.840Z,927.15
2019-04-21T01:38:24.475Z,927.18
2019-04-21T01:39:19.727Z,927.15
2019-04-21T01:40:22.958Z,927.15
2019-04-21T01:41:21.303Z,927.14
2019-04-21T01:42:18.891Z,927.11
2019-04-21T01:43:14.836Z,927.13
2019-04-21T01:44:22.404Z,927.13
2019-04-21T01:45:14.623Z,927.14
2019-04-21T01:46:15.281Z,927.12
2019-04-21T01:47:14.515Z,927.10
2019-04-21T01:48:12.962Z,927.07
2019-04-21T01:49:10.620Z,927.09
2019-04-21T01:50:08.410Z,927.12
2019-04-21T01:51:12.938Z,927.09
2019-04-21T01:52:23.752Z,927.12
2019-04-21T01:53:23.920Z,927.08
2019-04-21T01:54:26.941Z,927.12
2019-04-21T01:55:21.222Z,927.13
2019-04-21T01:56:16.911Z,927.12
2019-04-21T01:57:17.783Z,927.11
2019-04-21T01:58:12.815Z,927.08
2019-04-21T01:59:08.304Z,927.12
2019-04-21T02:00:10.684Z,927.12
2019-04-21T02:01:16.064Z,927.12
2019-04-21T02:02:17.170Z,927.13
2019-04-21T02:03:36.195Z,927.11
2019-04-21T02:04:23.967Z,927.11
2019-04-21T02:05:26.455Z,927.13
2019-04-21T02:06:21.161Z,927.11
2019-04-21T02:07:25.348Z,927.09
2019-04-21T02:08:18.236Z,927.14
2019-04-21T02:09:15.409Z,927.13
2019-04-21T02:10:17.683Z,927.13
2019-04-21T02:11:23.133Z,927.16
2019-04-21T02:12:20.024Z,927.12
2019-04-21T02:13:20.226Z,927.15
2019-04-21T02:14:29.891Z,927.13
2019-04-21T02:15:23.881Z,927.10
2019-04-21T02:16:18.798Z,927.12
2019-04-21T02:17:17.367Z,927.08
2019-04-21T02:18:17.065Z,927.12
2019-04-21T02:19:18.257Z,927.10
2019-04-21T02:20:12.184Z,927.09
2019-04-21T02:21:10.459Z,927.10
2019-04-21T02:22:25.379Z,927.08
2019-04-21T02:23:28.185Z,927.08
2019-04-21T02:24:31.613Z,927.08
2019-04-21T02:25:23.124Z,927.07
2019-04-21T02:26:22.968Z,927.02
2019-04-21T02:27:19.184Z,927.03
2019-04-21T02:28:32.219Z,927.06
2019-04-21T02:29:24.518Z,927.06
2019-04-21T02:30:33.495Z,927.09
2019-04-21T02:31:36.150Z,927.08
2019-04-21T02:32:35.722Z,927.09
2019-04-21T02:34:37.042Z,927.05
2019-04-21T02:35:56.502Z,927.05
2019-04-21T02:39:30.307Z,927.06
2019-04-21T02:40:29.806Z,926.99
2019-04-21T02:41:35.511Z,927.02
2019-04-21T02:43:25.224Z,927.06
2019-04-21T02:44:37.428Z,927.04
2019-04-21T02:45:34.245Z,927.09
2019-04-21T02:46:40.066Z,927.06
2019-04-21T02:49:45.210Z,927.09
2019-04-21T02:50:31.583Z,927.10
2019-04-21T02:51:38.857Z,927.11
2019-04-21T02:52:37.424Z,927.08
2019-04-21T02:55:29.011Z,927.12
2019-04-21T02:56:34.471Z,927.16
2019-04-21T02:58:37.711Z,927.16
2019-04-21T02:59:39.183Z,927.16
2019-04-21T03:00:32.867Z,927.14
2019-04-21T03:01:42.403Z,927.15
2019-04-21T03:03:36.443Z,927.11
2019-04-21T03:04:36.149Z,927.10
2019-04-21T03:05:41.666Z,927.12
2019-04-21T03:06:34.985Z,927.10
2019-04-21T03:07:31.855Z,927.07
2019-04-21T03:08:44.751Z,927.04
2019-04-21T03:09:33.452Z,927.10
2019-04-21T03:10:38.274Z,927.07
2019-04-21T03:11:48.601Z,927.05
2019-04-21T03:13:42.939Z,927.04
2019-04-21T03:15:56.124Z,927.03
2019-04-21T03:16:27.902Z,927.00
2019-04-21T03:17:48.706Z,927.02
2019-04-21T03:18:36.394Z,927.08
2019-04-21T03:20:35.816Z,927.04
2019-04-21T03:21:28.961Z,927.04
2019-04-21T03:23:36.576Z,927.04
2019-04-21T03:24:53.507Z,927.04
2019-04-21T03:25:44.878Z,927.07
2019-04-21T03:27:46.279Z,927.06
2019-04-21T03:32:04.141Z,927.01
2019-04-21T03:35:03.850Z,926.96
2019-04-21T03:36:47.690Z,926.94
2019-04-21T03:37:42.462Z,926.92
2019-04-21T03:38:43.039Z,926.93
2019-04-21T03:39:37.462Z,926.93
2019-04-21T03:40:34.614Z,926.91
2019-04-21T03:41:39.548Z,926.87
2019-04-21T03:42:42.547Z,926.91
2019-04-21T03:43:36.433Z,926.85
2019-04-21T03:44:46.325Z,926.90
2019-04-21T03:46:41.457Z,926.85
2019-04-21T03:47:36.539Z,926.85
2019-04-21T03:48:36.553Z,926.85
2019-04-21T03:49:39.871Z,926.85
2019-04-21T03:52:42.488Z,926.84
2019-04-21T03:53:31.926Z,926.83
2019-04-21T03:54:37.280Z,926.81
2019-04-21T03:56:53.021Z,926.79
2019-04-21T03:57:52.853Z,926.82
2019-04-21T03:58:46.873Z,926.84
2019-04-21T03:59:26.404Z,926.82
2019-04-21T04:01:37.059Z,926.77
2019-04-21T04:02:42.650Z,926.75
2019-04-21T04:05:49.498Z,926.72
2019-04-21T04:06:34.363Z,926.69
2019-04-21T04:07:42.461Z,926.69
2019-04-21T04:09:36.762Z,926.72
2019-04-21T04:10:31.409Z,926.72
2019-04-21T04:11:41.512Z,926.67
2019-04-21T04:12:35.056Z,926.71
2019-04-21T04:13:53.332Z,926.69
2019-04-21T04:14:40.511Z,926.71
2019-04-21T04:15:38.604Z,926.72
2019-04-21T04:16:37.218Z,926.69
2019-04-21T04:17:34.423Z,926.68
2019-04-21T04:19:45.446Z,926.62
2019-04-21T04:20:39.924Z,926.59
2019-04-21T04:21:39.430Z,926.61
2019-04-21T04:23:41.543Z,926.57
2019-04-21T04:24:39.611Z,926.58
2019-04-21T04:25:35.481Z,926.54
2019-04-21T04:28:50.034Z,926.53
2019-04-21T04:31:39.548Z,926.54
2019-04-21T04:32:34.850Z,926.51
2019-04-21T04:34:42.033Z,926.58
2019-04-21T04:35:42.373Z,926.57
2019-04-21T04:37:36.336Z,926.53
2019-04-21T04:38:44.203Z,926.48
2019-04-21T04:40:39.017Z,926.43
2019-04-21T04:41:42.283Z,926.46
2019-04-21T04:42:43.285Z,926.44
2019-04-21T04:43:54.631Z,926.44
2019-04-21T04:44:46.432Z,926.47
2019-04-21T04:45:41.685Z,926.45
2019-04-21T04:46:59.427Z,926.44
2019-04-21T04:47:34.970Z,926.44
2019-04-21T04:48:37.479Z,926.44
2019-04-21T04:49:43.519Z,926.45
2019-04-21T04:50:41.064Z,926.41
2019-04-21T04:51:56.358Z,926.42
2019-04-21T04:54:49.305Z,926.44
2019-04-21T04:55:43.314Z,926.41
2019-04-21T04:56:43.414Z,926.43
2019-04-21T04:57:49.118Z,926.44
2019-04-21T05:00:54.590Z,926.47
2019-04-21T05:01:48.577Z,926.43
2019-04-21T05:02:48.482Z,926.50
2019-04-21T05:04:46.034Z,926.45
2019-04-21T05:05:36.193Z,926.44
2019-04-21T05:07:43.045Z,926.42
2019-04-21T05:08:56.675Z,926.41
2019-04-21T05:09:40.452Z,926.40
2019-04-21T05:10:47.659Z,926.35
2019-04-21T05:13:33.201Z,926.33
2019-04-21T05:14:38.940Z,926.28
2019-04-21T05:15:37.859Z,926.28
2019-04-21T05:18:46.920Z,926.28
2019-04-21T05:19:34.759Z,926.25
2019-04-21T05:20:31.051Z,926.22
2019-04-21T05:22:35.505Z,926.17
2019-04-21T05:23:31.660Z,926.17
2019-04-21T05:24:23.065Z,926.15
2019-04-21T05:25:23.379Z,926.17
2019-04-21T05:26:22.020Z,926.18
2019-04-21T05:27:23.417Z,926.15
2019-04-21T05:28:19.771Z,926.14
2019-04-21T05:29:22.711Z,926.15
2019-04-21T05:30:33.978Z,926.16
2019-04-21T05:31:36.754Z,926.10
2019-04-21T05:32:37.869Z,926.12
2019-04-21T05:33:32.156Z,926.10
2019-04-21T05:34:42.682Z,926.05
2019-04-21T05:35:26.791Z,926.04
2019-04-21T05:36:29.564Z,926.06
2019-04-21T05:37:33.260Z,926.05
2019-04-21T05:38:27.443Z,926.02
2019-04-21T05:39:26.237Z,926.05
2019-04-21T05:40:24.867Z,926.01
2019-04-21T05:41:23.188Z,926.08
2019-04-21T05:42:24.526Z,926.05
2019-04-21T05:44:35.341Z,926.04
2019-04-21T05:45:50.060Z,926.02
2019-04-21T05:46:35.128Z,926.00
2019-04-21T05:47:35.420Z,926.04
2019-04-21T05:49:29.769Z,926.02
2019-04-21T05:50:27.951Z,925.98
2019-04-21T05:51:25.084Z,925.95
2019-04-21T05:52:26.454Z,925.98
2019-04-21T05:54:39.689Z,925.97
2019-04-21T05:55:40.612Z,925.97
2019-04-21T05:56:33.584Z,925.99
2019-04-21T05:57:32.367Z,925.97
2019-04-21T05:58:36.666Z,925.98
2019-04-21T05:59:33.428Z,925.99
2019-04-21T06:01:41.110Z,926.01
2019-04-21T06:02:29.318Z,925.99
2019-04-21T06:04:54.782Z,926.08
2019-04-21T06:05:37.576Z,926.09
2019-04-21T06:06:33.606Z,926.07
2019-04-21T06:08:34.299Z,926.10
2019-04-21T06:09:41.021Z,926.08
2019-04-21T06:10:38.579Z,926.02
2019-04-21T06:11:30.843Z,926.03
2019-04-21T06:12:36.690Z,926.05
2019-04-21T06:14:42.238Z,926.05
2019-04-21T06:15:39.517Z,926.03
2019-04-21T06:16:40.402Z,926.04
2019-04-21T06:17:36.170Z,926.04
2019-04-21T06:19:41.363Z,926.04
2019-04-21T06:20:37.928Z,926.03
2019-04-21T06:21:35.713Z,926.00
2019-04-21T06:22:34.400Z,926.02
2019-04-21T06:23:38.733Z,926.00
2019-04-21T06:24:29.893Z,925.97
2019-04-21T06:26:51.767Z,925.96
2019-04-21T06:27:35.931Z,925.92
2019-04-21T06:29:41.577Z,925.89
2019-04-21T06:30:33.634Z,925.86
2019-04-21T06:32:46.795Z,925.84
2019-04-21T06:33:35.623Z,925.83
2019-04-21T06:34:55.186Z,925.81
2019-04-21T06:35:57.057Z,925.78
2019-04-21T06:36:47.092Z,925.78
2019-04-21T06:38:44.268Z,925.75
2019-04-21T06:39:39.911Z,925.73
2019-04-21T06:40:37.305Z,925.76
2019-04-21T06:41:34.352Z,925.75
2019-04-21T06:42:34.272Z,925.75
2019-04-21T06:43:33.320Z,925.75
2019-04-21T06:44:33.115Z,925.70
2019-04-21T06:45:36.595Z,925.71
2019-04-21T06:46:47.047Z,925.73
2019-04-21T06:47:42.255Z,925.71
2019-04-21T06:48:32.962Z,925.71
2019-04-21T06:49:30.241Z,925.69
2019-04-21T06:50:44.170Z,925.70
2019-04-21T06:51:33.706Z,925.67
2019-04-21T06:52:46.280Z,925.70
2019-04-21T06:53:39.664Z,925.71
2019-04-21T06:54:35.613Z,925.70
2019-04-21T06:55:35.205Z,925.75
2019-04-21T06:56:51.550Z,925.71
2019-04-21T06:57:33.288Z,925.72
2019-04-21T06:58:31.991Z,925.76
2019-04-21T06:59:32.013Z,925.68
2019-04-21T07:00:30.547Z,925.69
2019-04-21T07:01:36.856Z,925.69
2019-04-21T07:02:43.791Z,925.69
2019-04-21T07:03:34.875Z,925.72
2019-04-21T07:05:33.533Z,925.69
2019-04-21T07:06:37.275Z,925.69
2019-04-21T07:07:35.267Z,925.71
2019-04-21T07:08:36.462Z,925.70
2019-04-21T07:09:31.100Z,925.74
2019-04-21T07:10:35.466Z,925.74
2019-04-21T07:11:31.790Z,925.72
2019-04-21T07:12:37.050Z,925.74
2019-04-21T07:13:30.915Z,925.73
2019-04-21T07:14:47.907Z,925.76
2019-04-21T07:15:41.928Z,925.71
2019-04-21T07:16:38.787Z,925.69
2019-04-21T07:17:35.837Z,925.72
2019-04-21T07:18:34.330Z,925.71
2019-04-21T07:19:46.738Z,925.75
2019-04-21T07:20:36.258Z,925.72
2019-04-21T07:21:33.846Z,925.77
2019-04-21T07:22:37.618Z,925.79
2019-04-21T07:23:40.010Z,925.81
2019-04-21T07:24:41.704Z,925.82
2019-04-21T07:25:38.504Z,925.85
2019-04-21T07:26:36.727Z,925.88
2019-04-21T07:27:35.484Z,925.90
2019-04-21T07:28:46.084Z,925.91
2019-04-21T07:29:44.585Z,925.90
2019-04-21T07:30:35.161Z,925.93
2019-04-21T07:31:44.525Z,925.96
2019-04-21T07:32:36.341Z,925.93
2019-04-21T07:35:40.380Z,926.02
2019-04-21T07:36:46.343Z,926.00
2019-04-21T07:37:35.110Z,926.05
2019-04-21T07:38:36.210Z,926.02
2019-04-21T07:39:35.589Z,926.06
2019-04-21T07:41:25.182Z,926.11
2019-04-21T07:42:32.531Z,926.12
2019-04-21T07:43:29.974Z,926.15
2019-04-21T07:44:30.235Z,926.14
2019-04-21T07:45:30.151Z,926.16
2019-04-21T07:46:25.605Z,926.21
2019-04-21T07:47:36.682Z,926.21
2019-04-21T07:49:32.897Z,926.20
2019-04-21T07:50:34.462Z,926.20
2019-04-21T07:51:43.504Z,926.22
2019-04-21T07:52:34.839Z,926.21
2019-04-21T07:53:48.203Z,926.21
2019-04-21T07:54:37.477Z,926.19
2019-04-21T07:56:19.959Z,926.22
2019-04-21T07:57:33.073Z,926.21
2019-04-21T07:58:36.400Z,926.17
2019-04-21T07:59:48.566Z,926.20
2019-04-21T08:00:36.340Z,926.16
2019-04-21T08:01:40.077Z,926.11
2019-04-21T08:02:38.571Z,926.12
2019-04-21T08:03:37.238Z,926.14
2019-04-21T08:05:39.265Z,926.09
2019-04-21T08:06:43.502Z,926.05
2019-04-21T08:07:47.728Z,926.05
2019-04-21T08:08:33.733Z,926.05
2019-04-21T08:09:36.840Z,926.02
2019-04-21T08:10:33.576Z,925.99
2019-04-21T08:11:32.671Z,926.03
2019-04-21T08:12:29.928Z,926.03
2019-04-21T08:13:41.818Z,926.01
2019-04-21T08:14:37.739Z,926.00
2019-04-21T08:15:33.892Z,925.98
2019-04-21T08:16:37.245Z,926.01
2019-04-21T08:17:36.735Z,926.06
2019-04-21T08:18:39.368Z,926.03
2019-04-21T08:19:36.880Z,926.09
2019-04-21T08:20:34.855Z,926.08
2019-04-21T08:21:33.940Z,926.11
2019-04-21T08:22:41.300Z,926.12
2019-04-21T08:23:37.131Z,926.13
2019-04-21T08:24:34.696Z,926.12
2019-04-21T08:25:43.621Z,926.16
2019-04-21T08:26:39.821Z,926.21
2019-04-21T08:27:42.878Z,926.21
2019-04-21T08:28:42.667Z,926.22
2019-04-21T08:29:39.433Z,926.26
2019-04-21T08:30:38.114Z,926.25
2019-04-21T08:31:46.983Z,926.20
2019-04-21T08:32:46.173Z,926.18
2019-04-21T08:33:38.400Z,926.23
2019-04-21T08:34:34.829Z,926.20
2019-04-21T08:36:01.172Z,926.22
2019-04-21T08:36:34.944Z,926.24
2019-04-21T08:37:39.871Z,926.23
2019-04-21T08:38:35.866Z,926.21
2019-04-21T08:39:37.701Z,926.23
2019-04-21T08:40:49.707Z,926.22
2019-04-21T08:41:31.346Z,926.25
2019-04-21T08:42:41.282Z,926.25
2019-04-21T08:43:43.092Z,926.29
2019-04-21T08:44:43.801Z,926.31
2019-04-21T08:46:38.732Z,926.38
2019-04-21T08:47:43.604Z,926.40
2019-04-21T08:48:40.363Z,926.39
2019-04-21T08:49:37.955Z,926.37
2019-04-21T08:50:37.390Z,926.34
2019-04-21T08:51:39.684Z,926.31
2019-04-21T08:53:45.872Z,926.33
2019-04-21T08:54:38.674Z,926.31
2019-04-21T08:55:39.975Z,926.33
2019-04-21T08:56:34.329Z,926.32
2019-04-21T08:57:41.710Z,926.32
2019-04-21T08:58:59.055Z,926.33
2019-04-21T08:59:41.454Z,926.34
2019-04-21T09:00:38.929Z,926.31
2019-04-21T09:01:38.177Z,926.34
2019-04-21T09:03:35.489Z,926.39
2019-04-21T09:04:33.501Z,926.39
2019-04-21T09:05:40.969Z,926.38
2019-04-21T09:06:54.299Z,926.41
2019-04-21T09:07:39.097Z,926.40
2019-04-21T09:08:44.466Z,926.36
2019-04-21T09:10:35.377Z,926.29
2019-04-21T09:11:34.815Z,926.24
2019-04-21T09:12:37.161Z,926.28
2019-04-21T09:13:37.196Z,926.21
2019-04-21T09:14:36.641Z,926.10
2019-04-21T09:15:35.142Z,926.09
2019-04-21T09:16:33.461Z,926.08
2019-04-21T09:17:28.517Z,926.09
2019-04-21T09:18:32.464Z,926.10
2019-04-21T09:19:47.049Z,926.10
2019-04-21T09:20:50.855Z,926.12
2019-04-21T09:21:39.480Z,926.12
2019-04-21T09:22:35.844Z,926.14
2019-04-21T09:23:36.168Z,926.16
2019-04-21T09:24:35.115Z,926.15
2019-04-21T09:25:40.635Z,926.17
2019-04-21T09:26:34.245Z,926.14
2019-04-21T09:27:35.655Z,926.16
2019-04-21T09:28:31.283Z,926.13
2019-04-21T09:29:28.293Z,926.13
2019-04-21T09:30:19.813Z,926.18
2019-04-21T09:31:24.127Z,926.15
2019-04-21T09:32:23.183Z,926.14
2019-04-21T09:33:18.620Z,926.19
2019-04-21T09:34:24.890Z,926.20
2019-04-21T09:35:20.081Z,926.21
2019-04-21T09:36:23.186Z,926.21
2019-04-21T09:37:28.743Z,926.16
2019-04-21T09:38:27.565Z,926.16
2019-04-21T09:39:22.634Z,926.14
2019-04-21T09:40:27.367Z,926.09
2019-04-21T09:41:22.161Z,926.13
2019-04-21T09:42:20.158Z,926.13
2019-04-21T09:43:29.913Z,926.11
2019-04-21T09:44:25.977Z,926.11
2019-04-21T09:45:22.431Z,926.07
2019-04-21T09:46:19.161Z,926.15
2019-04-21T09:47:22.669Z,926.12
2019-04-21T09:48:22.367Z,926.14
2019-04-21T09:49:23.934Z,926.11
2019-04-21T09:50:19.869Z,926.26
2019-04-21T09:51:20.088Z,926.28
2019-04-21T09:52:25.418Z,926.28
2019-04-21T09:53:26.887Z,926.36
2019-04-21T09:54:24.841Z,926.38
2019-04-21T09:55:23.255Z,926.41
2019-04-21T09:56:31.556Z,926.40
2019-04-21T09:57:29.945Z,926.47
2019-04-21T09:58:29.274Z,926.46
2019-04-21T09:59:26.294Z,926.51
2019-04-21T10:00:24.788Z,926.48
2019-04-21T10:01:28.259Z,926.49
2019-04-21T10:02:33.163Z,926.48
2019-04-21T10:03:21.243Z,926.49
2019-04-21T10:04:20.767Z,926.51
2019-04-21T10:05:21.372Z,926.48
2019-04-21T10:06:20.791Z,926.55
2019-04-21T10:07:26.533Z,926.56
2019-04-21T10:08:20.138Z,926.61
2019-04-21T10:09:21.677Z,926.61
2019-04-21T10:10:20.248Z,926.58
2019-04-21T10:11:21.059Z,926.61
2019-04-21T10:12:20.314Z,926.59
2019-04-21T10:13:20.870Z,926.66
2019-04-21T10:14:20.410Z,926.67
2019-04-21T10:15:23.260Z,926.72
2019-04-21T10:16:21.580Z,926.70
2019-04-21T10:17:21.757Z,926.68
2019-04-21T10:18:21.681Z,926.75
2019-04-21T10:19:21.082Z,926.73
2019-04-21T10:20:20.725Z,926.70
2019-04-21T10:21:22.036Z,926.68
2019-04-21T10:22:21.145Z,926.61
2019-04-21T10:23:21.199Z,926.60
2019-04-21T10:24:22.115Z,926.59
2019-04-21T10:25:20.965Z,926.52
2019-04-21T10:26:22.135Z,926.53
2019-04-21T10:27:21.176Z,926.50
2019-04-21T10:28:21.194Z,926.49
2019-04-21T10:29:25.750Z,926.47
2019-04-21T10:30:22.401Z,926.46
2019-04-21T10:31:21.230Z,926.48
2019-04-21T10:32:23.480Z,926.50
2019-04-21T10:33:22.042Z,926.49
2019-04-21T10:34:21.369Z,926.53
2019-04-21T10:35:23.083Z,926.60
2019-04-21T10:36:22.708Z,926.65
2019-04-21T10:37:34.030Z,926.67
2019-04-21T10:38:30.478Z,926.66
2019-04-21T10:39:21.801Z,926.66
2019-04-21T10:40:21.664Z,926.68
2019-04-21T10:41:21.714Z,926.69
2019-04-21T10:42:21.755Z,926.69
2019-04-21T10:43:23.686Z,926.72
2019-04-21T10:44:23.171Z,926.73
2019-04-21T10:45:22.996Z,926.79
2019-04-21T10:46:22.460Z,926.77
2019-04-21T10:47:22.774Z,926.86
2019-04-21T10:48:23.115Z,926.77
2019-04-21T10:49:22.589Z,926.81
2019-04-21T10:50:22.634Z,926.84
2019-04-21T10:51:23.137Z,926.89
2019-04-21T10:52:22.870Z,926.86
2019-04-21T10:53:23.044Z,926.86
2019-04-21T10:54:22.375Z,926.86
2019-04-21T10:55:41.763Z,926.84
2019-04-21T10:56:30.705Z,926.86
2019-04-21T10:57:22.503Z,926.90
2019-04-21T10:58:22.673Z,926.89
2019-04-21T10:59:24.908Z,926.92
2019-04-21T11:00:23.935Z,926.88
2019-04-21T11:01:23.198Z,926.86
2019-04-21T11:02:23.115Z,926.84
2019-04-21T11:03:22.865Z,926.84
2019-04-21T11:04:28.991Z,926.90
2019-04-21T11:05:22.964Z,926.90
2019-04-21T11:06:24.356Z,926.93
2019-04-21T11:07:26.526Z,926.92
2019-04-21T11:08:30.034Z,926.96
2019-04-21T11:09:24.110Z,926.96
2019-04-21T11:10:23.237Z,926.85
2019-04-21T11:11:23.911Z,926.88
2019-04-21T11:12:23.985Z,926.89
2019-04-21T11:13:23.346Z,926.89
2019-04-21T11:14:23.431Z,926.87
2019-04-21T11:15:23.464Z,926.86
2019-04-21T11:16:23.596Z,926.86
2019-04-21T11:17:23.966Z,926.94
2019-04-21T11:18:24.045Z,926.91
2019-04-21T11:19:24.238Z,926.92
2019-04-21T11:20:24.708Z,926.90
2019-04-21T11:21:24.954Z,926.91
2019-04-21T11:22:25.077Z,926.90
2019-04-21T11:23:25.029Z,926.93
2019-04-21T11:24:25.024Z,926.94
2019-04-21T11:25:24.358Z,926.91
2019-04-21T11:26:24.356Z,926.93
2019-04-21T11:27:24.697Z,926.93
2019-04-21T11:28:24.824Z,926.95
2019-04-21T11:29:26.153Z,926.94
2019-04-21T11:30:25.515Z,926.93
2019-04-21T11:31:25.022Z,926.97
2019-04-21T11:32:25.268Z,927.02
2019-04-21T11:33:24.947Z,927.04
2019-04-21T11:34:25.131Z,927.06
2019-04-21T11:35:25.497Z,927.11
2019-04-21T11:36:24.979Z,927.10
2019-04-21T11:37:24.662Z,927.09
2019-04-21T11:38:27.297Z,927.15
2019-04-21T11:39:35.314Z,927.13
2019-04-21T11:40:25.476Z,927.13
2019-04-21T11:41:25.674Z,927.13
2019-04-21T11:42:25.751Z,927.14
2019-04-21T11:43:24.970Z,927.17
2019-04-21T11:44:25.028Z,927.18
2019-04-21T11:45:26.332Z,927.16
2019-04-21T11:46:26.658Z,927.18
2019-04-21T11:47:25.248Z,927.18
2019-04-21T11:48:26.166Z,927.23
2019-04-21T11:49:27.613Z,927.22
2019-04-21T11:50:25.383Z,927.22
2019-04-21T11:51:26.678Z,927.23
2019-04-21T11:52:25.487Z,927.25
2019-04-21T11:53:25.533Z,927.24
2019-04-21T11:54:26.740Z,927.27
2019-04-21T11:55:29.495Z,927.34
2019-04-21T11:56:27.108Z,927.34
2019-04-21T11:57:28.724Z,927.39
2019-04-21T11:58:26.341Z,927.37
2019-04-21T11:59:25.937Z,927.34
2019-04-21T12:00:25.899Z,927.34
2019-04-21T12:01:25.998Z,927.36
2019-04-21T12:02:26.074Z,927.42
2019-04-21T12:03:27.502Z,927.36
2019-04-21T12:04:27.400Z,927.42
2019-04-21T12:05:27.572Z,927.40
2019-04-21T12:06:32.225Z,927.44
2019-04-21T12:07:27.226Z,927.44
2019-04-21T12:08:33.047Z,927.48
2019-04-21T12:09:27.326Z,927.46
2019-04-21T12:10:27.145Z,927.47
2019-04-21T12:11:27.267Z,927.49
2019-04-21T12:12:27.509Z,927.48
2019-04-21T12:13:27.795Z,927.52
2019-04-21T12:14:27.899Z,927.53
2019-04-21T12:15:27.090Z,927.58
2019-04-21T12:16:26.868Z,927.57
2019-04-21T12:17:27.959Z,927.63
2019-04-21T12:18:29.934Z,927.68
2019-04-21T12:19:27.149Z,927.72
2019-04-21T12:20:28.476Z,927.71
2019-04-21T12:21:31.145Z,927.71
2019-04-21T12:22:31.603Z,927.71
2019-04-21T12:23:27.214Z,927.76
2019-04-21T12:24:30.003Z,927.70
2019-04-21T12:25:27.379Z,927.69
2019-04-21T12:26:28.296Z,927.69
2019-04-21T12:27:27.799Z,927.63
2019-04-21T12:28:28.065Z,927.63
2019-04-21T12:29:29.044Z,927.61
2019-04-21T12:30:27.638Z,927.64
2019-04-21T12:31:27.742Z,927.65
2019-04-21T12:32:28.353Z,927.64
2019-04-21T12:33:27.961Z,927.63
2019-04-21T12:34:28.112Z,927.58
2019-04-21T12:35:28.109Z,927.59
2019-04-21T12:36:27.977Z,927.64
2019-04-21T12:37:28.912Z,927.63
2019-04-21T12:38:36.366Z,927.66
2019-04-21T12:39:28.162Z,927.65
2019-04-21T12:40:28.456Z,927.66
2019-04-21T12:41:28.756Z,927.67
2019-04-21T12:42:28.382Z,927.66
2019-04-21T12:43:28.612Z,927.66
2019-04-21T12:44:29.520Z,927.73
2019-04-21T12:45:28.535Z,927.69
2019-04-21T12:46:29.770Z,927.71
2019-04-21T12:47:30.005Z,927.78
2019-04-21T12:48:29.621Z,927.80
2019-04-21T12:49:29.728Z,927.80
2019-04-21T12:50:30.016Z,927.80
2019-04-21T12:51:30.153Z,927.81
2019-04-21T12:52:29.490Z,927.79
2019-04-21T12:53:29.732Z,927.76
2019-04-21T12:54:29.854Z,927.75
2019-04-21T12:55:34.080Z,927.73
2019-04-21T12:56:29.493Z,927.70
2019-04-21T12:57:31.421Z,927.63
2019-04-21T12:58:29.300Z,927.61
2019-04-21T12:59:32.147Z,927.66
2019-04-21T13:00:29.429Z,927.61
2019-04-21T13:01:30.652Z,927.60
2019-04-21T13:02:29.642Z,927.60
2019-04-21T13:03:30.409Z,927.62
2019-04-21T13:04:29.657Z,927.59
2019-04-21T13:05:29.746Z,927.64
2019-04-21T13:06:29.763Z,927.64
2019-04-21T13:07:31.124Z,927.63
2019-04-21T13:08:43.605Z,927.63
2019-04-21T13:09:31.977Z,927.65
2019-04-21T13:10:30.551Z,927.63
2019-04-21T13:11:30.969Z,927.64
2019-04-21T13:12:31.099Z,927.59
2019-04-21T13:13:30.279Z,927.59
2019-04-21T13:14:31.516Z,927.56
2019-04-21T13:15:31.399Z,927.55
2019-04-21T13:16:31.604Z,927.49
2019-04-21T13:17:31.087Z,927.48
2019-04-21T13:18:31.235Z,927.45
2019-04-21T13:19:31.530Z,927.40
2019-04-21T13:20:30.621Z,927.41
2019-04-21T13:21:31.916Z,927.37
2019-04-21T13:22:32.028Z,927.39
2019-04-21T13:23:31.346Z,927.36
2019-04-21T13:24:31.805Z,927.38
2019-04-21T13:25:31.771Z,927.37
2019-04-21T13:26:41.904Z,927.40
2019-04-21T13:27:31.038Z,927.45
2019-04-21T13:28:32.444Z,927.48
2019-04-21T13:29:32.274Z,927.47
2019-04-21T13:30:32.540Z,927.49
2019-04-21T13:31:32.067Z,927.42
2019-04-21T13:32:31.337Z,927.42
2019-04-21T13:33:31.423Z,927.42
2019-04-21T13:34:31.796Z,927.39
2019-04-21T13:35:33.030Z,927.41
2019-04-21T13:36:31.817Z,927.38
2019-04-21T13:37:32.975Z,927.41
2019-04-21T13:38:37.784Z,927.38
2019-04-21T13:39:57.134Z,927.36
2019-04-21T13:40:49.845Z,927.35
2019-04-21T13:41:42.790Z,927.30
2019-04-21T13:42:39.378Z,927.32
2019-04-21T13:43:32.987Z,927.31
2019-04-21T13:44:33.078Z,927.31
2019-04-21T13:45:32.314Z,927.30